sensor_id;sensor_type;location;lat;lon;timestamp;pressure;altitude;pressure_sealevel;temperature;humidity
34073;BME280;20346;52.702;16.886;2023-04-24T02:12:39;99766.49;;;13.30;63.82
34073;BME280;20346;52.702;16.886;2023-04-24T04:19:35;99678.79;;;13.41;65.88
34073;BME280;20346;52.702;16.886;2023-04-24T04:22:52;99678.26;;;13.41;65.96
34073;BME280;20346;52.702;16.886;2023-04-24T04:26:38;99679.69;;;13.40;65.94
34073;BME280;20346;52.702;16.886;2023-04-24T04:32:12;99672.96;;;13.39;65.96
34073;BME280;20346;52.702;16.886;2023-04-24T06:26:47;99635.43;;;24.30;62.85
34073;BME280;20346;52.702;16.886;2023-04-24T06:30:34;99637.64;;;24.58;62.44
34073;BME280;20346;52.702;16.886;2023-04-24T06:34:22;99633.00;;;24.19;62.21
34073;BME280;20346;52.702;16.886;2023-04-24T06:38:09;99633.65;;;24.04;61.88
34073;BME280;20346;52.702;16.886;2023-04-24T09:11:22;99647.81;;;17.64;60.92
34073;BME280;20346;52.702;16.886;2023-04-24T09:15:09;99648.00;;;18.06;61.14
34073;BME280;20346;52.702;16.886;2023-04-24T09:18:57;99651.30;;;18.44;61.01
34073;BME280;20346;52.702;16.886;2023-04-24T09:22:44;99648.54;;;18.66;61.00
34073;BME280;20346;52.702;16.886;2023-04-24T09:26:36;99640.84;;;18.79;60.76
34073;BME280;20346;52.702;16.886;2023-04-24T09:30:23;99638.17;;;18.93;60.82
34073;BME280;20346;52.702;16.886;2023-04-24T09:34:25;99634.67;;;19.17;60.88
34073;BME280;20346;52.702;16.886;2023-04-24T09:38:12;99630.41;;;19.38;60.93
34073;BME280;20346;52.702;16.886;2023-04-24T09:42:06;99632.14;;;19.46;60.89
34073;BME280;20346;52.702;16.886;2023-04-24T09:45:56;99632.17;;;19.48;60.86
34073;BME280;20346;52.702;16.886;2023-04-24T09:49:46;99638.42;;;19.38;60.68
34073;BME280;20346;52.702;16.886;2023-04-24T09:53:37;99637.54;;;19.29;60.76
34073;BME280;20346;52.702;16.886;2023-04-24T11:41:47;99647.71;;;19.91;59.52
34073;BME280;20346;52.702;16.886;2023-04-24T11:45:36;99651.92;;;19.91;59.48
34073;BME280;20346;52.702;16.886;2023-04-24T11:48:36;99643.10;;;19.97;59.44
34073;BME280;20346;52.702;16.886;2023-04-24T12:08:26;99645.13;;;20.23;58.78
34073;BME280;20346;52.702;16.886;2023-04-24T12:12:00;99643.44;;;20.17;58.56
34073;BME280;20346;52.702;16.886;2023-04-24T12:15:49;99642.71;;;20.12;58.42
34073;BME280;20346;52.702;16.886;2023-04-24T12:19:47;99636.04;;;20.12;58.10
34073;BME280;20346;52.702;16.886;2023-04-24T12:23:34;99638.48;;;20.13;58.07
34073;BME280;20346;52.702;16.886;2023-04-24T12:27:25;99632.35;;;20.10;57.83
34073;BME280;20346;52.702;16.886;2023-04-24T12:31:13;99623.21;;;20.19;57.81
34073;BME280;20346;52.702;16.886;2023-04-24T14:22:19;99588.70;;;18.17;53.94
34073;BME280;20346;52.702;16.886;2023-04-24T14:40:36;99590.75;;;18.12;53.72
34073;BME280;20346;52.702;16.886;2023-04-24T14:44:23;99588.16;;;18.12;53.60
34073;BME280;20346;52.702;16.886;2023-04-24T14:48:10;99590.59;;;18.04;53.51
34073;BME280;20346;52.702;16.886;2023-04-24T14:51:56;99594.15;;;17.97;53.54
34073;BME280;20346;52.702;16.886;2023-04-24T14:55:11;99595.50;;;17.92;53.53
34073;BME280;20346;52.702;16.886;2023-04-24T14:59:01;99597.52;;;17.91;53.39
34073;BME280;20346;52.702;16.886;2023-04-24T15:05:07;99600.23;;;17.86;53.50
34073;BME280;20346;52.702;16.886;2023-04-24T15:12:57;99605.86;;;17.80;53.25
34073;BME280;20346;52.702;16.886;2023-04-24T15:19:18;99608.23;;;17.72;53.08
34073;BME280;20346;52.702;16.886;2023-04-24T17:29:23;99610.19;;;15.89;56.14
34073;BME280;20346;52.702;16.886;2023-04-24T17:33:10;99608.81;;;15.76;55.96
34073;BME280;20346;52.702;16.886;2023-04-24T17:36:58;99613.67;;;15.63;55.93
34073;BME280;20346;52.702;16.886;2023-04-24T17:40:21;99618.77;;;15.55;56.19
34073;BME280;20346;52.702;16.886;2023-04-24T17:44:08;99624.08;;;15.46;56.22
34073;BME280;20346;52.702;16.886;2023-04-24T17:47:55;99625.58;;;15.41;56.37
34073;BME280;20346;52.702;16.886;2023-04-24T17:51:41;99638.11;;;15.33;56.36
34073;BME280;20346;52.702;16.886;2023-04-24T17:55:28;99642.05;;;15.24;56.58
34073;BME280;20346;52.702;16.886;2023-04-24T17:59:16;99648.80;;;15.17;56.60
34073;BME280;20346;52.702;16.886;2023-04-24T18:03:03;99653.80;;;15.08;56.59
34073;BME280;20346;52.702;16.886;2023-04-24T18:06:50;99653.86;;;14.97;56.63
34073;BME280;20346;52.702;16.886;2023-04-24T18:10:38;99655.20;;;14.83;56.78
34073;BME280;20346;52.702;16.886;2023-04-24T18:14:25;99657.74;;;14.78;56.87
34073;BME280;20346;52.702;16.886;2023-04-24T18:18:12;99660.38;;;14.70;56.99
34073;BME280;20346;52.702;16.886;2023-04-24T18:22:00;99664.31;;;14.68;57.15
34073;BME280;20346;52.702;16.886;2023-04-24T18:25:58;99662.70;;;14.62;57.36
34073;BME280;20346;52.702;16.886;2023-04-24T18:33:30;99666.77;;;14.53;57.68
34073;BME280;20346;52.702;16.886;2023-04-24T18:37:17;99674.21;;;14.49;57.81
34073;BME280;20346;52.702;16.886;2023-04-24T18:41:09;99680.89;;;14.40;57.91
34073;BME280;20346;52.702;16.886;2023-04-24T18:45:03;99679.02;;;14.36;58.22
34073;BME280;20346;52.702;16.886;2023-04-24T18:48:43;99681.20;;;14.29;58.44
34073;BME280;20346;52.702;16.886;2023-04-24T18:52:38;99683.71;;;14.23;58.49
34073;BME280;20346;52.702;16.886;2023-04-24T18:56:20;99685.79;;;14.20;58.70
34073;BME280;20346;52.702;16.886;2023-04-24T19:00:10;99681.89;;;14.18;58.89
34073;BME280;20346;52.702;16.886;2023-04-24T19:04:00;99685.23;;;14.17;59.11
34073;BME280;20346;52.702;16.886;2023-04-24T19:07:49;99685.19;;;14.18;59.26
34073;BME280;20346;52.702;16.886;2023-04-24T19:11:39;99689.74;;;14.17;59.41
34073;BME280;20346;52.702;16.886;2023-04-24T19:15:31;99689.83;;;14.19;59.57
34073;BME280;20346;52.702;16.886;2023-04-24T19:19:16;99685.98;;;14.19;59.71
34073;BME280;20346;52.702;16.886;2023-04-24T19:26:52;99696.33;;;14.17;59.89
34073;BME280;20346;52.702;16.886;2023-04-24T19:30:45;99697.20;;;14.17;60.02
34073;BME280;20346;52.702;16.886;2023-04-24T19:34:31;99694.99;;;14.16;60.20
34073;BME280;20346;52.702;16.886;2023-04-24T19:38:21;99691.16;;;14.16;60.51
34073;BME280;20346;52.702;16.886;2023-04-24T19:42:11;99686.23;;;14.14;60.48
34073;BME280;20346;52.702;16.886;2023-04-24T19:46:09;99687.82;;;14.13;60.56
34073;BME280;20346;52.702;16.886;2023-04-24T19:49:53;99688.25;;;14.12;60.73
34073;BME280;20346;52.702;16.886;2023-04-24T19:53:40;99690.73;;;14.11;60.82
34073;BME280;20346;52.702;16.886;2023-04-24T19:57:27;99686.44;;;14.09;61.02
34073;BME280;20346;52.702;16.886;2023-04-24T20:01:13;99686.21;;;14.07;61.06
34073;BME280;20346;52.702;16.886;2023-04-24T20:05:00;99684.17;;;14.06;61.22
34073;BME280;20346;52.702;16.886;2023-04-24T20:08:47;99688.10;;;14.07;61.33
34073;BME280;20346;52.702;16.886;2023-04-24T20:12:34;99691.93;;;14.03;61.52
34073;BME280;20346;52.702;16.886;2023-04-24T20:16:20;99690.70;;;14.04;61.62
34073;BME280;20346;52.702;16.886;2023-04-24T20:20:07;99689.28;;;14.04;61.63
34073;BME280;20346;52.702;16.886;2023-04-24T20:23:54;99687.30;;;14.03;61.84
34073;BME280;20346;52.702;16.886;2023-04-24T20:27:41;99686.13;;;14.02;61.98
34073;BME280;20346;52.702;16.886;2023-04-24T20:31:28;99690.23;;;13.99;61.91
34073;BME280;20346;52.702;16.886;2023-04-24T20:35:14;99692.30;;;13.96;62.07
34073;BME280;20346;52.702;16.886;2023-04-24T20:39:01;99689.58;;;13.90;62.16
34073;BME280;20346;52.702;16.886;2023-04-24T20:42:48;99689.95;;;13.86;62.23
34073;BME280;20346;52.702;16.886;2023-04-24T20:46:35;99690.91;;;13.80;62.25
34073;BME280;20346;52.702;16.886;2023-04-24T20:50:22;99695.26;;;13.76;62.33
34073;BME280;20346;52.702;16.886;2023-04-24T20:54:08;99693.69;;;13.72;62.47
34073;BME280;20346;52.702;16.886;2023-04-24T20:57:55;99694.40;;;13.67;62.45
34073;BME280;20346;52.702;16.886;2023-04-24T21:01:42;99694.43;;;13.63;62.43
34073;BME280;20346;52.702;16.886;2023-04-24T21:05:28;99699.01;;;13.61;62.54
34073;BME280;20346;52.702;16.886;2023-04-24T21:09:15;99699.11;;;13.58;62.73
34073;BME280;20346;52.702;16.886;2023-04-24T21:13:01;99698.27;;;13.54;62.78
34073;BME280;20346;52.702;16.886;2023-04-24T21:16:57;99701.70;;;13.51;62.87
34073;BME280;20346;52.702;16.886;2023-04-24T21:20:44;99700.78;;;13.44;62.78
34073;BME280;20346;52.702;16.886;2023-04-24T21:24:30;99703.02;;;13.40;62.85
34073;BME280;20346;52.702;16.886;2023-04-24T21:28:17;99702.02;;;13.31;62.84
34073;BME280;20346;52.702;16.886;2023-04-24T21:32:04;99702.61;;;13.22;62.93
34073;BME280;20346;52.702;16.886;2023-04-24T21:35:50;99706.20;;;13.13;62.91
34073;BME280;20346;52.702;16.886;2023-04-24T21:39:37;99706.73;;;13.05;62.80
34073;BME280;20346;52.702;16.886;2023-04-24T21:43:24;99713.52;;;12.96;62.74
34073;BME280;20346;52.702;16.886;2023-04-24T21:47:11;99717.54;;;12.86;62.81
34073;BME280;20346;52.702;16.886;2023-04-24T21:50:58;99718.48;;;12.80;62.70
34073;BME280;20346;52.702;16.886;2023-04-24T21:54:44;99716.67;;;12.73;62.72
34073;BME280;20346;52.702;16.886;2023-04-24T21:58:31;99717.42;;;12.67;62.63
34073;BME280;20346;52.702;16.886;2023-04-24T22:02:18;99716.23;;;12.57;62.63
34073;BME280;20346;52.702;16.886;2023-04-24T22:06:05;99718.92;;;12.50;62.62
34073;BME280;20346;52.702;16.886;2023-04-24T22:09:51;99721.87;;;12.42;62.62
34073;BME280;20346;52.702;16.886;2023-04-24T22:13:38;99726.27;;;12.35;62.66
34073;BME280;20346;52.702;16.886;2023-04-24T22:17:26;99730.17;;;12.33;62.55
34073;BME280;20346;52.702;16.886;2023-04-24T22:21:13;99733.34;;;12.26;62.62
34073;BME280;20346;52.702;16.886;2023-04-24T22:25:00;99729.91;;;12.21;62.57
34073;BME280;20346;52.702;16.886;2023-04-24T22:28:46;99729.80;;;12.15;62.55
34073;BME280;20346;52.702;16.886;2023-04-24T22:32:33;99731.36;;;12.10;62.57
34073;BME280;20346;52.702;16.886;2023-04-24T22:36:20;99734.15;;;12.04;62.61
34073;BME280;20346;52.702;16.886;2023-04-24T22:40:07;99737.48;;;12.03;62.59
34073;BME280;20346;52.702;16.886;2023-04-24T22:43:54;99741.59;;;11.99;62.60
34073;BME280;20346;52.702;16.886;2023-04-24T22:47:40;99741.65;;;11.93;62.69
34073;BME280;20346;52.702;16.886;2023-04-24T22:51:27;99744.62;;;11.88;62.61
34073;BME280;20346;52.702;16.886;2023-04-24T22:55:14;99746.84;;;11.83;62.68
34073;BME280;20346;52.702;16.886;2023-04-24T22:59:01;99752.16;;;11.79;62.65
34073;BME280;20346;52.702;16.886;2023-04-24T23:02:48;99753.66;;;11.75;62.63
34073;BME280;20346;52.702;16.886;2023-04-24T23:06:34;99759.97;;;11.62;62.63
34073;BME280;20346;52.702;16.886;2023-04-24T23:10:21;99756.05;;;11.50;62.61
34073;BME280;20346;52.702;16.886;2023-04-24T23:14:08;99753.23;;;11.43;62.55
34073;BME280;20346;52.702;16.886;2023-04-24T23:17:54;99760.94;;;11.34;62.62
34073;BME280;20346;52.702;16.886;2023-04-24T23:21:41;99757.01;;;11.27;62.58
34073;BME280;20346;52.702;16.886;2023-04-24T23:25:28;99758.29;;;11.25;62.55
34073;BME280;20346;52.702;16.886;2023-04-24T23:29:14;99761.91;;;11.15;62.56
34073;BME280;20346;52.702;16.886;2023-04-24T23:33:01;99755.73;;;11.09;62.57
34073;BME280;20346;52.702;16.886;2023-04-24T23:36:48;99753.67;;;11.02;62.56
34073;BME280;20346;52.702;16.886;2023-04-24T23:40:34;99758.91;;;10.95;62.52
34073;BME280;20346;52.702;16.886;2023-04-24T23:44:21;99758.83;;;10.88;62.45
34073;BME280;20346;52.702;16.886;2023-04-24T23:48:08;99760.55;;;10.81;62.42
34073;BME280;20346;52.702;16.886;2023-04-24T23:51:55;99761.23;;;10.77;62.40
34073;BME280;20346;52.702;16.886;2023-04-24T23:55:42;99765.49;;;10.72;62.39
34073;BME280;20346;52.702;16.886;2023-04-24T23:59:29;99766.16;;;10.67;62.42
